createdAt,value
2023-02-05T05:43:00.306Z,4.63
2023-02-05T05:45:27.111Z,4.50
2023-02-05T05:50:20.212Z,4.45
2023-02-05T05:52:46.724Z,4.25
2023-02-05T05:55:13.363Z,4.32
2023-02-05T05:57:39.837Z,4.82
2023-02-05T06:00:06.739Z,3.92
2023-02-05T06:04:59.808Z,4.30
2023-02-05T06:07:26.321Z,3.92
2023-02-05T06:09:52.851Z,4.13
2023-02-05T06:12:19.390Z,4.30
2023-02-05T06:14:45.908Z,4.18
2023-02-05T06:17:12.453Z,3.78
2023-02-05T06:19:38.946Z,4.63
2023-02-05T06:22:05.490Z,3.90
2023-02-05T06:24:31.981Z,4.70
2023-02-05T06:26:58.469Z,4.47
2023-02-05T06:29:25.157Z,4.45
2023-02-05T06:31:51.953Z,4.90
2023-02-05T06:36:44.982Z,4.22
2023-02-05T06:39:11.491Z,4.32
2023-02-05T06:41:37.995Z,4.40
2023-02-05T06:44:04.692Z,4.57
2023-02-05T06:46:31.356Z,5.00
2023-02-05T06:48:57.848Z,5.22
2023-02-05T06:51:24.424Z,5.00
2023-02-05T06:53:52.678Z,4.53
2023-02-05T06:56:20.215Z,4.45
2023-02-05T06:58:46.807Z,4.78
2023-02-05T07:01:13.396Z,4.75
2023-02-05T07:03:39.891Z,4.55
2023-02-05T07:06:06.923Z,4.90
2023-02-05T07:08:34.211Z,4.30
2023-02-05T07:11:01.931Z,4.47
2023-02-05T07:13:29.870Z,4.45
2023-02-05T07:15:56.493Z,5.82
2023-02-05T07:18:24.467Z,4.93
2023-02-05T07:20:50.979Z,5.07
2023-02-05T07:23:17.569Z,4.32
2023-02-05T07:25:44.086Z,4.10
2023-02-05T07:28:10.802Z,4.72
2023-02-05T07:33:05.124Z,4.38
2023-02-05T07:35:33.397Z,3.90
2023-02-05T07:38:00.226Z,3.75
2023-02-05T07:40:26.761Z,4.25
2023-02-05T07:42:53.296Z,4.28
2023-02-05T07:45:19.875Z,4.35
2023-02-05T07:47:49.928Z,4.65
2023-02-05T07:50:17.408Z,4.82
2023-02-05T07:52:43.962Z,4.70
2023-02-05T07:55:10.513Z,6.70
2023-02-05T07:57:37.122Z,4.78
2023-02-05T08:00:04.553Z,5.07
2023-02-05T08:02:31.029Z,5.15
2023-02-05T08:04:57.553Z,5.55
2023-02-05T08:07:24.063Z,4.90
2023-02-05T08:09:50.587Z,5.43
2023-02-05T08:12:17.115Z,4.90
2023-02-05T08:14:43.904Z,4.47
2023-02-05T08:17:10.438Z,4.97
2023-02-05T08:19:36.979Z,4.75
2023-02-05T08:22:03.471Z,4.65
2023-02-05T08:24:32.050Z,4.38
2023-02-05T08:26:58.695Z,4.18
2023-02-05T08:29:25.233Z,5.38
2023-02-05T08:31:51.946Z,4.32
2023-02-05T08:34:20.757Z,4.20
2023-02-05T08:36:47.609Z,3.97
2023-02-05T08:39:14.539Z,4.40
2023-02-05T08:41:41.776Z,4.35
2023-02-05T08:44:08.332Z,4.03
2023-02-05T08:46:48.854Z,3.60
2023-02-05T08:49:17.268Z,4.43
2023-02-05T08:51:43.889Z,4.32
2023-02-05T08:54:13.432Z,4.00
2023-02-05T08:56:40.573Z,4.57
2023-02-05T08:59:08.387Z,3.72
2023-02-05T09:01:41.065Z,3.42
2023-02-05T09:04:08.914Z,3.80
2023-02-05T09:06:35.518Z,3.60
2023-02-05T09:09:02.065Z,4.10
2023-02-05T09:11:30.577Z,4.30
2023-02-05T09:13:58.219Z,4.82
2023-02-05T09:16:25.663Z,4.25
2023-02-05T09:18:56.038Z,3.85
2023-02-05T09:21:23.758Z,4.15
2023-02-05T09:23:51.828Z,4.35
2023-02-05T09:26:19.376Z,4.07
2023-02-05T09:28:46.091Z,4.18
2023-02-05T09:33:40.487Z,4.10
2023-02-05T09:36:09.685Z,4.40
2023-02-05T09:38:36.781Z,4.47
2023-02-05T09:41:10.560Z,6.28
2023-02-05T09:43:43.360Z,4.78
2023-02-05T09:46:40.270Z,18.80
2023-02-05T09:49:35.080Z,19.63
2023-02-05T09:52:11.968Z,9.68
2023-02-05T09:54:44.010Z,8.32
2023-02-05T09:57:17.932Z,6.20
2023-02-05T09:59:46.736Z,5.72
2023-02-05T10:02:28.396Z,5.68
2023-02-05T10:04:55.252Z,4.72
2023-02-05T10:10:22.572Z,4.93
2023-02-05T10:13:00.488Z,6.88
2023-02-05T10:15:52.105Z,4.97
2023-02-05T10:18:37.647Z,4.57
2023-02-05T10:21:16.278Z,5.55
2023-02-05T10:23:45.909Z,5.07
2023-02-05T10:26:14.573Z,5.85
2023-02-05T10:29:22.608Z,5.05
2023-02-05T10:32:06.830Z,8.70
2023-02-05T10:35:06.227Z,6.85
2023-02-05T10:37:32.682Z,6.70
2023-02-05T10:39:59.805Z,5.88
2023-02-05T10:42:36.321Z,5.50
2023-02-05T10:45:27.302Z,5.17
2023-02-05T10:48:15.349Z,5.50
2023-02-05T10:53:19.025Z,6.00
2023-02-05T10:55:45.581Z,6.18
2023-02-05T10:58:28.601Z,15.50
2023-02-05T11:00:55.388Z,8.35
2023-02-05T11:05:49.521Z,7.85
2023-02-05T11:08:36.898Z,7.35
2023-02-05T11:11:05.279Z,6.75
2023-02-05T11:13:32.854Z,5.68
2023-02-05T11:16:09.756Z,6.13
2023-02-05T11:18:40.648Z,10.38
2023-02-05T11:21:09.898Z,6.78
2023-02-05T11:23:41.569Z,7.47
2023-02-05T11:26:21.279Z,5.78
2023-02-05T11:28:48.212Z,5.75
2023-02-05T11:31:33.868Z,5.63
2023-02-05T11:34:15.720Z,5.70
2023-02-05T11:37:17.166Z,5.57
2023-02-05T11:39:45.796Z,6.90
2023-02-05T11:42:25.378Z,6.32
2023-02-05T11:44:57.996Z,6.65
2023-02-05T11:47:31.432Z,5.85
2023-02-05T11:49:59.386Z,5.38
2023-02-05T11:52:33.093Z,6.32
2023-02-05T11:54:59.735Z,6.25
2023-02-05T11:57:39.155Z,10.95
2023-02-05T12:00:08.694Z,11.05
2023-02-05T12:02:37.281Z,9.50
2023-02-05T12:05:17.525Z,6.00
2023-02-05T12:08:05.953Z,7.45
2023-02-05T12:10:45.869Z,6.47
2023-02-05T12:13:45.676Z,9.35
2023-02-05T12:16:28.756Z,8.07
2023-02-05T12:19:17.431Z,6.97
2023-02-05T12:21:51.563Z,7.28
2023-02-05T12:24:37.026Z,7.10
2023-02-05T12:27:41.999Z,9.40
2023-02-05T12:30:46.226Z,9.65
2023-02-05T12:33:28.684Z,8.52
2023-02-05T12:36:13.739Z,8.50
2023-02-05T12:39:04.577Z,9.50
2023-02-05T12:41:42.850Z,16.52
2023-02-05T12:44:22.719Z,9.13
2023-02-05T12:46:51.926Z,13.20
2023-02-05T12:49:18.473Z,8.77
2023-02-05T12:51:52.494Z,7.68
2023-02-05T12:54:32.809Z,8.60
2023-02-05T12:57:06.887Z,7.90
2023-02-05T12:59:47.905Z,7.80
2023-02-05T13:02:24.393Z,7.70
2023-02-05T13:05:21.976Z,7.13
2023-02-05T13:08:01.908Z,7.45
2023-02-05T13:10:38.052Z,6.80
2023-02-05T13:13:09.862Z,6.88
2023-02-05T13:15:44.859Z,6.78
2023-02-05T13:18:22.340Z,6.68
2023-02-05T13:21:18.083Z,6.07
2023-02-05T13:24:05.107Z,6.22
2023-02-05T13:27:02.882Z,7.90
2023-02-05T13:29:33.334Z,7.28
2023-02-05T13:32:15.205Z,6.13
2023-02-05T13:34:43.401Z,5.95
2023-02-05T13:37:13.063Z,8.85
2023-02-05T13:39:58.653Z,6.30
2023-02-05T13:42:56.514Z,5.40
2023-02-05T13:45:59.759Z,6.20
2023-02-05T13:48:52.570Z,6.18
2023-02-05T13:51:45.404Z,5.43
2023-02-05T13:54:44.100Z,5.32
2023-02-05T13:57:36.487Z,5.95
2023-02-05T14:00:05.508Z,5.93
2023-02-05T14:02:39.433Z,5.15
2023-02-05T14:05:06.673Z,5.03
2023-02-05T14:07:51.460Z,5.50
2023-02-05T14:10:28.740Z,11.18
2023-02-05T14:13:24.784Z,7.68
2023-02-05T14:15:57.486Z,6.07
2023-02-05T14:18:45.089Z,5.18
2023-02-05T14:21:29.988Z,5.75
2023-02-05T14:24:03.745Z,4.78
2023-02-05T14:26:45.618Z,4.80
2023-02-05T14:29:43.259Z,5.35
2023-02-05T14:32:29.981Z,6.40
2023-02-05T14:35:38.748Z,4.90
2023-02-05T14:38:33.024Z,5.35
2023-02-05T14:41:12.920Z,4.82
2023-02-05T14:43:41.051Z,5.57
2023-02-05T14:46:20.633Z,5.25
2023-02-05T14:48:48.660Z,5.50
2023-02-05T14:51:26.181Z,4.90
2023-02-05T14:54:17.082Z,5.45
2023-02-05T14:56:48.554Z,6.00
2023-02-05T14:59:43.770Z,6.45
2023-02-05T15:02:48.130Z,6.28
2023-02-05T15:05:20.630Z,5.72
2023-02-05T15:07:49.613Z,4.82
2023-02-05T15:10:22.704Z,4.80
2023-02-05T15:13:02.132Z,5.38
2023-02-05T15:15:37.525Z,5.15
2023-02-05T15:18:14.352Z,5.95
2023-02-05T15:20:47.171Z,5.53
2023-02-05T15:23:20.283Z,6.07
2023-02-05T15:26:09.093Z,5.85
2023-02-05T15:29:03.927Z,5.18
2023-02-05T15:31:48.347Z,5.63
2023-02-05T15:34:20.936Z,5.28
2023-02-05T15:36:54.185Z,5.40
2023-02-05T15:39:43.948Z,6.07
2023-02-05T15:42:16.895Z,5.63
2023-02-05T15:44:43.375Z,6.30
2023-02-05T15:47:19.470Z,5.82
2023-02-05T15:49:49.258Z,4.97
2023-02-05T15:52:20.776Z,5.35
2023-02-05T15:54:47.599Z,5.35
2023-02-05T15:59:49.214Z,5.85
2023-02-05T16:02:20.471Z,5.93
2023-02-05T16:04:57.654Z,5.53
2023-02-05T16:07:37.108Z,6.53
2023-02-05T16:10:17.371Z,5.82
2023-02-05T16:13:04.076Z,6.40
2023-02-05T16:15:41.657Z,5.38
2023-02-05T16:18:18.469Z,4.95
2023-02-05T16:20:50.569Z,5.22
2023-02-05T16:23:24.551Z,4.88
2023-02-05T16:25:57.514Z,5.00
2023-02-05T16:28:56.621Z,5.80
2023-02-05T16:31:25.420Z,5.13
2023-02-05T16:33:58.035Z,4.70
2023-02-05T16:36:29.571Z,5.53
2023-02-05T16:38:59.105Z,5.38
2023-02-05T16:41:31.859Z,6.35
2023-02-05T16:44:03.855Z,5.90
2023-02-05T16:46:31.721Z,5.25
2023-02-05T16:49:22.459Z,5.40
2023-02-05T16:51:48.985Z,5.47
2023-02-05T16:54:18.295Z,5.45
2023-02-05T16:56:54.465Z,5.38
2023-02-05T16:59:28.788Z,5.30
2023-02-05T17:01:56.115Z,4.57
2023-02-05T17:04:35.470Z,5.45
2023-02-05T17:07:04.448Z,5.53
2023-02-05T17:09:39.262Z,4.50
2023-02-05T17:12:45.221Z,4.75
2023-02-05T17:15:32.044Z,4.95
2023-02-05T17:18:20.215Z,6.05
2023-02-05T17:20:46.782Z,7.60
2023-02-05T17:23:15.092Z,7.82
2023-02-05T17:25:51.239Z,7.05
2023-02-05T17:28:21.054Z,5.28
2023-02-05T17:30:49.228Z,6.07
2023-02-05T17:33:19.747Z,7.32
2023-02-05T17:35:48.815Z,6.47
2023-02-05T17:38:16.422Z,4.90
2023-02-05T17:40:44.168Z,5.68
2023-02-05T17:43:10.795Z,5.95
2023-02-05T17:45:39.794Z,5.70
2023-02-05T17:48:07.829Z,10.02
2023-02-05T17:50:36.075Z,7.68
2023-02-05T17:53:03.625Z,5.82
2023-02-05T17:55:30.391Z,5.95
2023-02-05T18:00:26.979Z,5.05
2023-02-05T18:02:53.762Z,5.47
2023-02-05T18:07:58.180Z,5.15
2023-02-05T18:10:28.158Z,4.95
2023-02-05T18:12:56.196Z,5.57
2023-02-05T18:15:23.500Z,8.32
2023-02-05T18:17:50.362Z,7.00
2023-02-05T18:20:20.871Z,5.95
2023-02-05T18:22:48.130Z,6.50
2023-02-05T18:25:15.079Z,6.25
2023-02-05T18:27:41.737Z,5.35
2023-02-05T18:30:08.977Z,6.32
2023-02-05T18:32:35.512Z,5.32
2023-02-05T18:35:02.049Z,5.68
2023-02-05T18:37:28.614Z,5.38
2023-02-05T18:39:55.175Z,5.78
2023-02-05T18:42:23.182Z,5.50
2023-02-05T18:44:49.722Z,5.85
2023-02-05T18:47:16.228Z,5.10
2023-02-05T18:49:42.746Z,5.05
2023-02-05T18:52:10.320Z,5.22
2023-02-05T18:54:36.864Z,5.97
2023-02-05T18:57:03.617Z,5.85
2023-02-05T19:04:34.028Z,5.57
2023-02-05T19:07:00.676Z,5.97
2023-02-05T19:09:28.146Z,5.72
2023-02-05T19:11:55.963Z,5.68
2023-02-05T19:14:24.454Z,6.32
2023-02-05T19:16:51.276Z,5.60
2023-02-05T19:21:48.811Z,5.38
2023-02-05T19:24:17.358Z,5.82
2023-02-05T19:26:44.248Z,7.65
2023-02-05T19:29:15.327Z,7.70
2023-02-05T19:31:42.205Z,8.00
2023-02-05T19:34:08.824Z,7.70
2023-02-05T19:36:35.510Z,7.15
2023-02-05T19:39:04.341Z,6.97
2023-02-05T19:41:32.603Z,6.38
2023-02-05T19:44:03.056Z,6.43
2023-02-05T19:46:32.783Z,6.10
2023-02-05T19:49:02.125Z,6.80
2023-02-05T19:51:28.932Z,6.75
2023-02-05T19:56:26.505Z,6.53
2023-02-05T19:58:55.190Z,6.18
2023-02-05T20:01:27.805Z,6.53
2023-02-05T20:03:56.910Z,7.90
2023-02-05T20:06:25.460Z,6.72
2023-02-05T20:08:52.129Z,7.35
2023-02-05T20:11:19.447Z,6.85
2023-02-05T20:13:46.810Z,6.57
2023-02-05T20:16:21.998Z,6.68
2023-02-05T20:18:54.260Z,6.53
2023-02-05T20:21:21.629Z,6.72
2023-02-05T20:23:49.313Z,7.18
2023-02-05T20:26:19.036Z,7.20
2023-02-05T20:29:06.637Z,7.25
2023-02-05T20:31:33.482Z,7.03
2023-02-05T20:34:18.749Z,6.80
2023-02-05T20:36:47.114Z,8.10
2023-02-05T20:39:13.980Z,8.45
2023-02-05T20:41:40.846Z,7.68
2023-02-05T20:44:07.377Z,7.00
2023-02-05T20:46:33.988Z,7.70
2023-02-05T20:49:00.707Z,8.25
2023-02-05T20:51:27.600Z,8.60
2023-02-05T20:56:25.905Z,7.35
2023-02-05T20:58:52.936Z,7.78
2023-02-05T21:01:22.210Z,8.25
2023-02-05T21:03:51.221Z,8.23
2023-02-05T21:06:19.548Z,8.52
2023-02-05T21:08:48.197Z,7.93
2023-02-05T21:11:16.245Z,7.32
2023-02-05T21:13:44.884Z,7.60
2023-02-05T21:16:13.213Z,7.63
2023-02-05T21:18:40.421Z,8.32
2023-02-05T21:21:13.124Z,7.95
2023-02-05T21:23:40.329Z,8.18
2023-02-05T21:26:08.249Z,9.65
2023-02-05T21:28:34.802Z,7.60
2023-02-05T21:31:06.221Z,8.10
2023-02-05T21:33:33.192Z,7.95
2023-02-05T21:36:08.536Z,8.05
2023-02-05T21:38:36.946Z,6.57
